createdAt,value
2022-11-13T00:00:11.066Z,11.82
2022-11-13T00:01:18.077Z,13.46
2022-11-13T00:02:11.151Z,11.42
2022-11-13T00:03:11.064Z,10.66
2022-11-13T00:04:11.064Z,13.60
2022-11-13T00:05:11.067Z,11.62
2022-11-13T00:06:11.061Z,12.02
2022-11-13T00:07:11.083Z,10.44
2022-11-13T00:08:11.071Z,10.86
2022-11-13T00:09:12.066Z,11.06
2022-11-13T00:10:11.065Z,11.10
2022-11-13T00:11:18.069Z,10.82
2022-11-13T00:12:11.065Z,10.68
2022-11-13T00:13:11.064Z,12.08
2022-11-13T00:14:11.068Z,11.12
2022-11-13T00:15:11.067Z,11.20
2022-11-13T00:16:12.064Z,11.50
2022-11-13T00:17:11.065Z,12.32
2022-11-13T00:18:11.082Z,10.24
2022-11-13T00:19:11.067Z,11.36
2022-11-13T00:20:11.069Z,10.78
2022-11-13T00:21:13.070Z,9.76
2022-11-13T00:22:11.061Z,11.50
2022-11-13T00:23:11.058Z,11.94
2022-11-13T00:24:11.060Z,9.72
2022-11-13T00:25:11.063Z,10.26
2022-11-13T00:26:18.067Z,11.44
2022-11-13T00:27:11.060Z,10.66
2022-11-13T00:28:11.069Z,10.60
2022-11-13T00:29:11.060Z,9.94
2022-11-13T00:30:16.368Z,11.30
2022-11-13T00:31:13.138Z,13.18
2022-11-13T00:32:11.063Z,12.04
2022-11-13T00:33:11.061Z,12.38
2022-11-13T00:34:46.383Z,10.86
2022-11-13T00:35:13.132Z,10.48
2022-11-13T00:36:13.061Z,9.66
2022-11-13T00:37:11.064Z,8.68
2022-11-13T00:38:11.077Z,12.66
2022-11-13T00:39:11.064Z,8.40
2022-11-13T00:40:11.074Z,9.28
2022-11-13T00:41:11.064Z,9.98
2022-11-13T00:42:11.065Z,8.44
2022-11-13T00:43:11.061Z,8.66
2022-11-13T00:44:11.063Z,7.90
2022-11-13T00:45:12.065Z,8.14
2022-11-13T00:46:11.065Z,8.24
2022-11-13T00:47:11.063Z,7.46
2022-11-13T00:48:11.063Z,8.32
2022-11-13T00:49:11.064Z,8.04
2022-11-13T00:50:11.062Z,8.16
2022-11-13T00:51:11.063Z,8.80
2022-11-13T00:52:11.062Z,9.50
2022-11-13T00:53:16.841Z,8.18
2022-11-13T00:54:13.083Z,8.88
2022-11-13T00:55:11.064Z,7.86
2022-11-13T00:56:11.059Z,8.88
2022-11-13T00:57:11.067Z,8.24
2022-11-13T00:58:11.068Z,7.26
2022-11-13T00:59:11.062Z,8.68
2022-11-13T01:00:11.066Z,9.52
2022-11-13T01:01:17.146Z,9.46
2022-11-13T01:02:11.063Z,9.04
2022-11-13T01:03:11.065Z,7.98
2022-11-13T01:04:11.071Z,8.00
2022-11-13T01:05:11.062Z,8.56
2022-11-13T01:06:16.068Z,8.70
2022-11-13T01:07:11.087Z,8.36
2022-11-13T01:08:11.065Z,9.24
2022-11-13T01:09:11.065Z,8.82
2022-11-13T01:10:11.064Z,6.62
2022-11-13T01:11:11.066Z,7.76
2022-11-13T01:12:11.060Z,9.14
2022-11-13T01:13:11.073Z,8.42
2022-11-13T01:14:11.067Z,9.50
2022-11-13T01:15:11.070Z,7.12
2022-11-13T01:16:11.076Z,8.48
2022-11-13T01:17:11.066Z,7.04
2022-11-13T01:18:11.066Z,7.32
2022-11-13T01:19:11.067Z,8.12
2022-11-13T01:20:11.074Z,7.80
2022-11-13T01:21:17.065Z,7.48
2022-11-13T01:22:11.058Z,8.18
2022-11-13T01:23:11.062Z,9.20
2022-11-13T01:24:11.061Z,8.00
2022-11-13T01:25:11.061Z,8.20
2022-11-13T01:26:18.061Z,7.68
2022-11-13T01:27:11.073Z,8.34
2022-11-13T01:28:11.061Z,7.26
2022-11-13T01:29:11.057Z,8.36
2022-11-13T01:30:11.061Z,7.18
2022-11-13T01:31:11.062Z,8.54
2022-11-13T01:32:11.068Z,8.66
2022-11-13T01:33:11.064Z,9.08
2022-11-13T01:34:11.063Z,9.06
2022-11-13T01:35:11.059Z,10.68
2022-11-13T01:36:15.070Z,9.94
2022-11-13T01:37:11.064Z,9.80
2022-11-13T01:38:11.058Z,10.24
2022-11-13T01:39:11.062Z,9.84
2022-11-13T01:40:12.069Z,9.28
2022-11-13T01:41:17.854Z,9.14
2022-11-13T01:42:13.484Z,10.18
2022-11-13T01:43:19.066Z,9.76
2022-11-13T01:44:14.074Z,9.38
2022-11-13T01:45:19.061Z,9.56
2022-11-13T01:46:17.058Z,9.98
2022-11-13T01:47:11.066Z,10.70
2022-11-13T01:48:11.072Z,10.64
2022-11-13T01:49:19.062Z,10.54
2022-11-13T01:50:14.066Z,10.36
2022-11-13T01:51:18.070Z,10.76
2022-11-13T01:52:19.063Z,10.10
2022-11-13T01:53:11.068Z,9.66
2022-11-13T01:54:15.063Z,11.12
2022-11-13T01:55:16.081Z,9.82
2022-11-13T01:56:11.064Z,11.66
2022-11-13T01:57:11.062Z,10.26
2022-11-13T01:58:11.069Z,11.14
2022-11-13T01:59:21.073Z,11.32
2022-11-13T02:00:11.067Z,9.60
2022-11-13T02:01:11.063Z,9.80
2022-11-13T02:02:11.130Z,11.50
2022-11-13T02:03:11.075Z,11.44
2022-11-13T02:04:11.073Z,10.38
2022-11-13T02:05:12.067Z,12.16
2022-11-13T02:06:11.071Z,12.00
2022-11-13T02:07:12.099Z,11.82
2022-11-13T02:08:11.067Z,10.24
2022-11-13T02:09:11.068Z,10.26
2022-11-13T02:10:11.064Z,11.46
2022-11-13T02:11:11.066Z,13.64
2022-11-13T02:12:13.067Z,11.54
2022-11-13T02:13:11.067Z,12.00
2022-11-13T02:14:11.064Z,10.74
2022-11-13T02:15:11.064Z,10.38
2022-11-13T02:16:11.066Z,12.80
2022-11-13T02:17:12.063Z,12.96
2022-11-13T02:18:11.073Z,14.86
2022-11-13T02:19:17.077Z,12.08
2022-11-13T02:20:11.066Z,13.30
2022-11-13T02:21:21.056Z,14.88
2022-11-13T02:22:20.060Z,16.46
2022-11-13T02:23:17.067Z,14.34
2022-11-13T02:24:19.062Z,16.02
2022-11-13T02:25:11.062Z,16.46
2022-11-13T02:26:11.057Z,19.02
2022-11-13T02:27:21.067Z,16.10
2022-11-13T02:28:11.070Z,17.22
2022-11-13T02:29:11.062Z,19.34
2022-11-13T02:30:22.026Z,21.82
2022-11-13T02:31:13.131Z,20.70
2022-11-13T02:32:11.071Z,21.72
2022-11-13T02:33:19.060Z,23.46
2022-11-13T02:34:11.060Z,20.28
2022-11-13T02:35:11.063Z,22.38
2022-11-13T02:36:11.065Z,21.72
2022-11-13T02:37:11.062Z,22.74
2022-11-13T02:38:11.062Z,20.82
2022-11-13T02:39:11.069Z,23.90
2022-11-13T02:40:11.061Z,22.40
2022-11-13T02:41:11.065Z,23.38
2022-11-13T02:42:11.080Z,25.94
2022-11-13T02:43:11.062Z,22.02
2022-11-13T02:44:11.058Z,23.00
2022-11-13T02:45:11.062Z,21.08
2022-11-13T02:46:11.067Z,23.30
2022-11-13T02:47:11.061Z,24.90
2022-11-13T02:48:11.062Z,22.86
2022-11-13T02:49:11.067Z,24.22
2022-11-13T02:50:11.061Z,22.84
2022-11-13T02:51:11.063Z,23.14
2022-11-13T02:52:11.121Z,24.40
2022-11-13T02:53:11.068Z,23.06
2022-11-13T02:54:16.536Z,24.44
2022-11-13T02:55:13.111Z,23.74
2022-11-13T02:56:11.066Z,23.42
2022-11-13T02:57:11.062Z,24.70
2022-11-13T02:58:11.065Z,25.78
2022-11-13T02:59:11.065Z,25.24
2022-11-13T03:00:14.002Z,22.58
2022-11-13T03:01:11.119Z,22.66
2022-11-13T03:02:11.077Z,22.90
2022-11-13T03:03:11.067Z,20.22
2022-11-13T03:04:11.059Z,22.54
2022-11-13T03:05:12.991Z,23.00
2022-11-13T03:06:11.067Z,21.60
2022-11-13T03:07:11.095Z,22.36
2022-11-13T03:08:11.071Z,22.60
2022-11-13T03:09:11.066Z,22.58
2022-11-13T03:10:11.071Z,20.24
2022-11-13T03:11:11.075Z,22.76
2022-11-13T03:12:11.075Z,22.38
2022-11-13T03:13:11.064Z,22.62
2022-11-13T03:14:11.069Z,21.32
2022-11-13T03:15:11.067Z,20.10
2022-11-13T03:16:17.069Z,20.96
2022-11-13T03:17:11.064Z,20.96
2022-11-13T03:18:11.068Z,20.82
2022-11-13T03:19:11.072Z,24.00
2022-11-13T03:20:11.070Z,20.82
2022-11-13T03:21:12.065Z,21.58
2022-11-13T03:22:11.064Z,19.96
2022-11-13T03:23:11.061Z,24.44
2022-11-13T03:24:11.060Z,21.82
2022-11-13T03:25:11.261Z,22.08
2022-11-13T03:26:11.060Z,23.10
2022-11-13T03:27:11.059Z,24.30
2022-11-13T03:28:11.061Z,25.84
2022-11-13T03:29:11.061Z,25.32
2022-11-13T03:30:11.060Z,23.88
2022-11-13T03:31:11.063Z,23.50
2022-11-13T03:32:11.071Z,25.14
2022-11-13T03:33:11.060Z,24.68
2022-11-13T03:34:11.058Z,27.90
2022-11-13T03:35:11.064Z,25.20
2022-11-13T03:36:11.063Z,22.56
2022-11-13T03:37:11.058Z,21.40
2022-11-13T03:38:11.062Z,21.94
2022-11-13T03:39:11.062Z,25.62
2022-11-13T03:40:11.061Z,23.14
2022-11-13T03:41:11.064Z,24.82
2022-11-13T03:42:11.069Z,23.52
2022-11-13T03:43:11.064Z,24.58
2022-11-13T03:44:11.061Z,26.88
2022-11-13T03:45:11.065Z,24.74
2022-11-13T03:46:11.067Z,26.46
2022-11-13T03:47:11.058Z,26.12
2022-11-13T03:48:11.070Z,22.96
2022-11-13T03:49:11.063Z,24.70
2022-11-13T03:50:11.061Z,26.54
2022-11-13T03:51:11.064Z,22.18
2022-11-13T03:52:11.063Z,24.50
2022-11-13T03:53:11.062Z,25.28
2022-11-13T03:54:11.068Z,28.72
2022-11-13T03:55:11.075Z,25.20
2022-11-13T03:56:11.061Z,23.34
2022-11-13T03:57:11.065Z,29.74
2022-11-13T03:58:11.072Z,22.90
2022-11-13T03:59:11.064Z,28.42
2022-11-13T04:00:11.060Z,25.72
2022-11-13T04:01:11.066Z,24.68
2022-11-13T04:02:11.066Z,22.64
2022-11-13T04:03:11.064Z,28.08
2022-11-13T04:04:11.066Z,28.88
2022-11-13T04:05:11.063Z,28.80
2022-11-13T04:06:11.064Z,25.50
2022-11-13T04:07:11.106Z,26.92
2022-11-13T04:08:11.066Z,28.76
2022-11-13T04:09:11.069Z,26.56
2022-11-13T04:10:11.064Z,24.84
2022-11-13T04:11:11.068Z,25.52
2022-11-13T04:12:11.065Z,24.26
2022-11-13T04:13:11.067Z,25.18
2022-11-13T04:14:11.073Z,26.70
2022-11-13T04:15:11.066Z,27.00
2022-11-13T04:16:11.064Z,26.92
2022-11-13T04:17:11.064Z,25.74
2022-11-13T04:18:11.067Z,24.70
2022-11-13T04:19:11.070Z,26.96
2022-11-13T04:20:11.065Z,26.12
2022-11-13T04:21:11.060Z,24.52
2022-11-13T04:22:11.057Z,24.66
2022-11-13T04:23:15.058Z,28.84
2022-11-13T04:24:11.065Z,26.54
2022-11-13T04:25:11.064Z,27.90
2022-11-13T04:26:11.089Z,26.58
2022-11-13T04:27:11.068Z,26.16
2022-11-13T04:28:11.060Z,27.42
2022-11-13T04:29:11.056Z,24.18
2022-11-13T04:30:11.062Z,24.98
2022-11-13T04:31:11.059Z,28.66
2022-11-13T04:32:11.060Z,29.52
2022-11-13T04:33:11.060Z,28.96
2022-11-13T04:34:11.062Z,29.28
2022-11-13T04:35:11.059Z,27.26
2022-11-13T04:36:11.061Z,30.74
2022-11-13T04:37:11.069Z,30.06
2022-11-13T04:38:11.063Z,27.22
2022-11-13T04:39:11.066Z,27.68
2022-11-13T04:40:11.063Z,26.26
2022-11-13T04:41:15.063Z,28.40
2022-11-13T04:42:15.060Z,26.62
2022-11-13T04:43:11.065Z,28.22
2022-11-13T04:44:11.069Z,23.70
2022-11-13T04:45:11.062Z,30.12
2022-11-13T04:46:11.057Z,27.90
2022-11-13T04:47:11.064Z,28.62
2022-11-13T04:48:11.066Z,28.14
2022-11-13T04:49:11.060Z,28.90
2022-11-13T04:50:11.062Z,26.70
2022-11-13T04:51:11.074Z,27.62
2022-11-13T04:52:11.061Z,30.34
2022-11-13T04:53:11.064Z,27.92
2022-11-13T04:54:11.069Z,25.84
2022-11-13T04:55:11.063Z,25.86
2022-11-13T04:56:11.067Z,26.60
2022-11-13T04:57:11.070Z,27.56
2022-11-13T04:58:11.067Z,26.56
2022-11-13T04:59:11.062Z,27.72
2022-11-13T05:00:11.063Z,24.94
2022-11-13T05:01:11.069Z,27.30
2022-11-13T05:02:11.061Z,26.72
2022-11-13T05:03:11.063Z,26.26
2022-11-13T05:04:14.064Z,27.26
2022-11-13T05:05:11.061Z,26.66
2022-11-13T05:06:11.065Z,28.94
2022-11-13T05:07:11.115Z,26.84
2022-11-13T05:08:11.065Z,26.66
2022-11-13T05:09:11.064Z,26.66
2022-11-13T05:10:11.066Z,26.80
2022-11-13T05:11:11.064Z,28.52
2022-11-13T05:12:11.063Z,27.38
2022-11-13T05:13:11.064Z,26.66
2022-11-13T05:14:12.067Z,27.40
2022-11-13T05:15:11.062Z,24.46
2022-11-13T05:16:11.063Z,27.24
2022-11-13T05:17:12.065Z,25.50
2022-11-13T05:18:11.063Z,25.64
2022-11-13T05:19:11.063Z,24.54
2022-11-13T05:20:11.067Z,25.72
2022-11-13T05:21:11.058Z,26.32
2022-11-13T05:22:11.062Z,26.50
2022-11-13T05:23:11.065Z,26.06
2022-11-13T05:24:11.059Z,24.48
2022-11-13T05:25:11.062Z,26.84
2022-11-13T05:26:11.062Z,28.06
2022-11-13T05:27:16.860Z,24.96
2022-11-13T05:28:13.120Z,26.42
2022-11-13T05:29:11.064Z,26.12
2022-11-13T05:30:11.088Z,27.22
2022-11-13T05:31:11.058Z,25.76
2022-11-13T05:32:11.063Z,27.22
2022-11-13T05:33:11.066Z,25.56
2022-11-13T05:34:11.058Z,27.56
2022-11-13T05:35:11.064Z,26.50
2022-11-13T05:36:13.063Z,26.04
2022-11-13T05:37:11.062Z,26.22
2022-11-13T05:38:11.059Z,28.06
2022-11-13T05:39:11.060Z,25.44
2022-11-13T05:40:11.061Z,27.18
2022-11-13T05:41:15.058Z,26.72
2022-11-13T05:42:11.057Z,27.96
2022-11-13T05:43:11.063Z,26.96
2022-11-13T05:44:11.062Z,27.46
2022-11-13T05:45:11.060Z,26.36
2022-11-13T05:46:19.063Z,25.86
2022-11-13T05:47:11.068Z,22.78
2022-11-13T05:48:11.065Z,26.02
2022-11-13T05:49:11.063Z,29.08
2022-11-13T05:50:11.068Z,26.06
2022-11-13T05:51:14.063Z,28.28
2022-11-13T05:52:11.058Z,26.20
2022-11-13T05:53:11.063Z,27.60
2022-11-13T05:54:11.063Z,25.88
2022-11-13T05:55:11.062Z,26.98
2022-11-13T05:56:13.061Z,24.68
2022-11-13T05:57:11.070Z,27.86
2022-11-13T05:58:11.061Z,25.00
2022-11-13T05:59:11.065Z,25.16
2022-11-13T06:00:11.076Z,28.54
2022-11-13T06:01:18.061Z,24.88
2022-11-13T06:02:11.100Z,25.92
2022-11-13T06:03:11.069Z,26.26
2022-11-13T06:04:11.068Z,28.80
2022-11-13T06:05:11.059Z,24.92
2022-11-13T06:06:11.066Z,24.60
2022-11-13T06:07:11.094Z,24.72
2022-11-13T06:08:11.063Z,24.46
2022-11-13T06:09:11.067Z,25.96
2022-11-13T06:10:11.073Z,26.48
2022-11-13T06:11:11.062Z,26.26
2022-11-13T06:12:11.064Z,25.24
2022-11-13T06:13:11.065Z,27.12
2022-11-13T06:14:11.062Z,26.22
2022-11-13T06:15:11.066Z,27.56
2022-11-13T06:16:14.075Z,26.60
2022-11-13T06:17:11.065Z,27.02
2022-11-13T06:18:11.061Z,29.10
2022-11-13T06:19:11.076Z,28.84
2022-11-13T06:20:11.067Z,28.28
2022-11-13T06:21:11.057Z,27.32
2022-11-13T06:22:11.057Z,28.14
2022-11-13T06:23:11.059Z,28.56
2022-11-13T06:24:11.061Z,25.78
2022-11-13T06:25:11.059Z,27.66
2022-11-13T06:26:14.067Z,25.36
2022-11-13T06:27:11.062Z,25.58
2022-11-13T06:28:11.057Z,26.30
2022-11-13T06:29:11.066Z,26.90
2022-11-13T06:30:11.063Z,25.84
2022-11-13T06:31:11.058Z,26.22
2022-11-13T06:32:11.062Z,26.26
2022-11-13T06:33:11.060Z,25.08
2022-11-13T06:34:11.059Z,25.90
2022-11-13T06:35:11.058Z,27.44
2022-11-13T06:36:12.061Z,27.14
2022-11-13T06:37:11.057Z,27.18
2022-11-13T06:38:11.063Z,24.78
2022-11-13T06:39:11.173Z,26.28
2022-11-13T06:40:11.058Z,27.66
2022-11-13T06:41:11.063Z,25.96
2022-11-13T06:42:11.062Z,25.74
2022-11-13T06:43:11.065Z,25.14
2022-11-13T06:44:11.064Z,26.24
2022-11-13T06:45:11.064Z,25.46
2022-11-13T06:46:16.063Z,25.84
2022-11-13T06:47:11.059Z,26.06
2022-11-13T06:48:11.062Z,25.34
2022-11-13T06:49:11.072Z,25.12
2022-11-13T06:50:11.060Z,27.16
2022-11-13T06:51:16.077Z,23.76
2022-11-13T06:52:11.065Z,25.00
2022-11-13T06:53:11.064Z,24.74
2022-11-13T06:54:11.062Z,25.38
2022-11-13T06:55:11.064Z,26.44
2022-11-13T06:56:11.063Z,24.52
2022-11-13T06:57:11.063Z,24.56
2022-11-13T06:58:11.064Z,26.16
2022-11-13T06:59:11.065Z,25.86
2022-11-13T07:00:11.073Z,25.00
2022-11-13T07:01:17.068Z,24.60
2022-11-13T07:02:11.071Z,24.42
2022-11-13T07:03:15.063Z,26.70
2022-11-13T07:04:13.064Z,26.02
2022-11-13T07:05:11.065Z,25.06
2022-11-13T07:06:11.068Z,26.12
2022-11-13T07:07:11.113Z,23.82
2022-11-13T07:08:11.067Z,24.52
2022-11-13T07:09:11.072Z,25.58
2022-11-13T07:10:11.066Z,25.78
2022-11-13T07:11:11.066Z,25.90
2022-11-13T07:12:11.069Z,23.88
2022-11-13T07:13:11.064Z,25.14
2022-11-13T07:14:12.064Z,25.14
2022-11-13T07:15:11.065Z,25.12
2022-11-13T07:16:17.081Z,25.86
2022-11-13T07:17:13.127Z,25.48
2022-11-13T07:18:11.068Z,23.92
2022-11-13T07:19:11.074Z,25.12
2022-11-13T07:20:11.064Z,26.34
2022-11-13T07:21:12.060Z,27.66
2022-11-13T07:22:11.061Z,25.44
2022-11-13T07:23:11.067Z,26.76
2022-11-13T07:24:16.565Z,24.74
2022-11-13T07:25:13.200Z,25.96
2022-11-13T07:26:11.069Z,25.74
2022-11-13T07:27:11.057Z,26.64
2022-11-13T07:28:11.063Z,25.36
2022-11-13T07:29:11.064Z,23.96
2022-11-13T07:30:11.063Z,24.46
2022-11-13T07:31:12.066Z,23.30
2022-11-13T07:32:11.060Z,24.06
2022-11-13T07:33:11.066Z,23.96
2022-11-13T07:34:11.059Z,24.52
2022-11-13T07:35:11.061Z,23.14
2022-11-13T07:36:11.070Z,26.02
2022-11-13T07:37:13.059Z,23.64
2022-11-13T07:38:11.065Z,23.96
2022-11-13T07:39:11.063Z,24.88
2022-11-13T07:40:11.061Z,23.04
2022-11-13T07:41:11.057Z,25.44
2022-11-13T07:42:11.060Z,24.44
2022-11-13T07:43:11.063Z,25.28
2022-11-13T07:44:11.202Z,24.38
2022-11-13T07:45:11.065Z,24.78
2022-11-13T07:46:11.069Z,23.76
2022-11-13T07:47:11.061Z,26.54
2022-11-13T07:48:11.061Z,24.48
2022-11-13T07:49:11.070Z,24.12
2022-11-13T07:50:11.223Z,25.76
2022-11-13T07:51:11.059Z,24.20
2022-11-13T07:52:11.069Z,25.02
2022-11-13T07:53:11.064Z,23.26
2022-11-13T07:54:11.064Z,24.38
2022-11-13T07:55:11.066Z,22.64
2022-11-13T07:56:11.065Z,24.74
2022-11-13T07:57:11.061Z,24.52
2022-11-13T07:58:11.071Z,22.82
2022-11-13T07:59:11.073Z,24.24
2022-11-13T08:00:11.065Z,23.66
2022-11-13T08:01:11.086Z,23.82
2022-11-13T08:02:15.066Z,24.32
2022-11-13T08:03:15.067Z,25.60
2022-11-13T08:04:11.065Z,22.54
2022-11-13T08:05:11.060Z,23.22
2022-11-13T08:06:11.064Z,22.82
2022-11-13T08:07:11.093Z,23.76
2022-11-13T08:08:13.067Z,21.18
2022-11-13T08:09:11.067Z,22.28
2022-11-13T08:10:11.066Z,21.40
2022-11-13T08:11:11.065Z,22.70
2022-11-13T08:12:11.065Z,21.98
2022-11-13T08:13:11.094Z,23.82
2022-11-13T08:14:11.065Z,22.06
2022-11-13T08:15:13.531Z,22.66
2022-11-13T08:16:11.073Z,21.62
2022-11-13T08:17:11.063Z,20.96
2022-11-13T08:18:11.075Z,22.96
2022-11-13T08:19:11.076Z,24.56
2022-11-13T08:20:11.067Z,24.90
2022-11-13T08:21:14.882Z,23.84
2022-11-13T08:22:11.063Z,21.44
2022-11-13T08:23:11.062Z,21.06
2022-11-13T08:24:11.056Z,22.14
2022-11-13T08:25:11.062Z,23.06
2022-11-13T08:26:11.061Z,20.96
2022-11-13T08:27:11.060Z,22.10
2022-11-13T08:28:13.131Z,20.46
2022-11-13T08:29:11.061Z,20.50
2022-11-13T08:30:11.061Z,21.38
2022-11-13T08:31:14.060Z,20.32
2022-11-13T08:32:11.069Z,21.48
2022-11-13T08:33:11.063Z,21.98
2022-11-13T08:34:11.064Z,20.90
2022-11-13T08:35:13.722Z,19.98
2022-11-13T08:36:13.880Z,20.72
2022-11-13T08:37:11.063Z,19.62
2022-11-13T08:38:11.062Z,18.88
2022-11-13T08:39:11.070Z,18.84
2022-11-13T08:40:11.068Z,21.00
2022-11-13T08:41:11.060Z,19.46
2022-11-13T08:42:11.065Z,20.42
2022-11-13T08:43:11.063Z,19.42
2022-11-13T08:44:11.058Z,19.02
2022-11-13T08:45:11.069Z,18.82
2022-11-13T08:46:11.064Z,19.34
2022-11-13T08:47:11.061Z,20.62
2022-11-13T08:48:11.062Z,20.46
2022-11-13T08:49:11.065Z,18.32
2022-11-13T08:50:11.063Z,21.14
2022-11-13T08:51:11.063Z,19.48
2022-11-13T08:52:11.069Z,19.98
2022-11-13T08:53:11.062Z,20.14
2022-11-13T08:54:11.065Z,20.08
2022-11-13T08:55:11.072Z,18.90
2022-11-13T08:56:11.065Z,19.42
2022-11-13T08:57:11.069Z,19.70
2022-11-13T08:58:11.067Z,23.24
2022-11-13T08:59:11.069Z,20.60
2022-11-13T09:00:11.063Z,17.86
2022-11-13T09:01:11.087Z,18.78
2022-11-13T09:02:14.069Z,18.70
2022-11-13T09:03:11.064Z,19.32
2022-11-13T09:04:11.128Z,17.86
2022-11-13T09:05:11.072Z,16.94
2022-11-13T09:06:11.063Z,17.30
2022-11-13T09:07:11.096Z,18.36
2022-11-13T09:08:11.076Z,18.60
2022-11-13T09:09:11.066Z,18.18
2022-11-13T09:10:11.067Z,16.44
2022-11-13T09:11:11.072Z,18.68
2022-11-13T09:12:11.067Z,17.22
2022-11-13T09:13:11.063Z,18.30
2022-11-13T09:14:11.069Z,16.70
2022-11-13T09:15:11.067Z,17.80
2022-11-13T09:16:11.065Z,18.34
2022-11-13T09:17:11.067Z,18.40
2022-11-13T09:18:11.067Z,17.52
2022-11-13T09:19:11.064Z,19.66
2022-11-13T09:20:13.762Z,17.84
2022-11-13T09:21:11.060Z,17.78
2022-11-13T09:22:11.059Z,19.18
2022-11-13T09:23:11.061Z,17.02
2022-11-13T09:24:11.076Z,18.28
2022-11-13T09:25:11.064Z,16.44
2022-11-13T09:26:11.064Z,17.74
2022-11-13T09:27:11.069Z,17.68
2022-11-13T09:28:11.063Z,15.96
2022-11-13T09:29:11.061Z,16.12
2022-11-13T09:30:11.061Z,16.50
2022-11-13T09:31:11.063Z,16.42
2022-11-13T09:32:11.059Z,15.70
2022-11-13T09:33:12.065Z,16.60
2022-11-13T09:34:11.069Z,16.62
2022-11-13T09:35:11.064Z,16.44
2022-11-13T09:36:14.066Z,15.72
2022-11-13T09:37:11.070Z,16.78
2022-11-13T09:38:11.789Z,16.22
2022-11-13T09:39:11.064Z,16.84
2022-11-13T09:40:17.071Z,16.94
2022-11-13T09:41:13.062Z,17.76
2022-11-13T09:42:17.063Z,16.98
2022-11-13T09:43:19.063Z,15.96
2022-11-13T09:44:19.070Z,16.92
2022-11-13T09:45:14.071Z,18.16
2022-11-13T09:46:20.062Z,18.76
2022-11-13T09:47:21.062Z,17.46
2022-11-13T09:48:22.063Z,17.66
2022-11-13T09:49:17.063Z,17.00
2022-11-13T09:50:22.075Z,15.84
2022-11-13T09:51:16.068Z,15.24
2022-11-13T09:52:19.063Z,16.56
2022-11-13T09:53:12.060Z,16.02
2022-11-13T09:54:15.069Z,15.90
2022-11-13T09:55:16.064Z,15.20
2022-11-13T09:56:19.063Z,14.80
2022-11-13T09:57:24.608Z,16.42
2022-11-13T09:58:24.434Z,16.06
2022-11-13T09:59:19.067Z,16.00
2022-11-13T10:00:15.073Z,15.10
2022-11-13T10:01:18.159Z,15.94
2022-11-13T10:02:22.063Z,16.52
2022-11-13T10:03:39.040Z,15.84
2022-11-13T10:04:16.072Z,15.42
2022-11-13T10:05:22.079Z,15.58
2022-11-13T10:06:19.066Z,16.66
2022-11-13T10:07:19.082Z,14.28
2022-11-13T10:08:20.064Z,14.28
2022-11-13T10:09:19.066Z,14.70
2022-11-13T10:10:19.075Z,14.68
2022-11-13T10:11:22.067Z,15.04
2022-11-13T10:12:11.068Z,15.56
2022-11-13T10:13:15.062Z,15.36
2022-11-13T10:14:19.071Z,15.90
2022-11-13T10:15:11.075Z,16.28
2022-11-13T10:16:22.064Z,15.14
2022-11-13T10:17:21.065Z,15.68
2022-11-13T10:18:20.070Z,15.72
2022-11-13T10:19:22.069Z,14.36
2022-11-13T10:20:21.076Z,15.22
2022-11-13T10:21:19.063Z,14.50
2022-11-13T10:22:32.336Z,14.56
2022-11-13T10:23:22.080Z,15.04
2022-11-13T10:24:21.058Z,16.36
2022-11-13T10:25:21.060Z,14.44
2022-11-13T10:26:15.061Z,14.00
2022-11-13T10:27:11.069Z,15.54
2022-11-13T10:28:48.330Z,13.74
2022-11-13T10:29:18.162Z,16.12
2022-11-13T10:30:17.074Z,16.44
2022-11-13T10:31:13.071Z,13.86
2022-11-13T10:32:22.059Z,16.66
2022-11-13T10:33:15.059Z,15.30
2022-11-13T10:34:11.063Z,13.96
2022-11-13T10:35:19.075Z,13.96
2022-11-13T10:36:19.063Z,13.58
2022-11-13T10:37:22.059Z,13.54
2022-11-13T10:38:17.058Z,13.18
2022-11-13T10:39:11.062Z,13.64
2022-11-13T10:40:11.071Z,14.88
2022-11-13T10:41:16.061Z,13.26
2022-11-13T10:42:19.062Z,12.56
2022-11-13T10:43:19.090Z,13.80
2022-11-13T10:44:19.064Z,15.48
2022-11-13T10:45:15.062Z,13.06
2022-11-13T10:46:18.059Z,13.26
2022-11-13T10:47:31.221Z,12.92
2022-11-13T10:48:21.172Z,12.62
2022-11-13T10:49:17.066Z,11.72
2022-11-13T10:50:19.061Z,12.90
2022-11-13T10:51:19.062Z,12.90
2022-11-13T10:52:19.065Z,13.10
2022-11-13T10:53:15.066Z,11.98
2022-11-13T10:54:19.065Z,12.82
2022-11-13T10:55:21.065Z,13.68
2022-11-13T10:56:19.064Z,12.92
2022-11-13T10:57:19.067Z,13.22
2022-11-13T10:58:18.066Z,13.62
2022-11-13T10:59:17.066Z,14.60
2022-11-13T11:00:19.063Z,12.88
2022-11-13T11:01:15.173Z,13.48
2022-11-13T11:02:18.071Z,13.50
2022-11-13T11:03:14.073Z,13.18
2022-11-13T11:04:19.067Z,12.56
2022-11-13T11:05:19.064Z,13.72
2022-11-13T11:06:11.067Z,12.50
2022-11-13T11:07:21.079Z,12.48
2022-11-13T11:08:11.219Z,13.14
2022-11-13T11:09:19.063Z,11.60
2022-11-13T11:10:19.067Z,12.40
2022-11-13T11:11:18.078Z,12.34
2022-11-13T11:12:16.065Z,11.44
2022-11-13T11:13:18.065Z,12.26
2022-11-13T11:14:22.068Z,13.44
2022-11-13T11:15:25.066Z,12.52
2022-11-13T11:16:12.070Z,12.40
2022-11-13T11:17:11.067Z,12.68
2022-11-13T11:18:22.105Z,12.60
2022-11-13T11:19:12.068Z,13.94
2022-11-13T11:20:19.077Z,13.08
2022-11-13T11:21:16.070Z,14.14
2022-11-13T11:22:19.060Z,14.06
2022-11-13T11:23:19.061Z,12.02
2022-11-13T11:24:16.063Z,12.52
2022-11-13T11:25:19.060Z,12.12
2022-11-13T11:26:22.062Z,12.76
2022-11-13T11:27:19.059Z,11.50
2022-11-13T11:28:21.063Z,12.24
2022-11-13T11:29:21.061Z,12.78
2022-11-13T11:30:19.069Z,13.38
2022-11-13T11:31:21.061Z,12.04
2022-11-13T11:32:24.059Z,13.00
2022-11-13T11:33:22.060Z,11.62
2022-11-13T11:34:22.058Z,11.34
2022-11-13T11:35:21.062Z,12.28
2022-11-13T11:36:19.063Z,10.66
2022-11-13T11:37:19.070Z,10.92
2022-11-13T11:38:19.058Z,11.00
2022-11-13T11:39:22.058Z,10.60
2022-11-13T11:40:19.063Z,12.56
2022-11-13T11:41:16.551Z,10.92
2022-11-13T11:42:19.073Z,11.16
2022-11-13T11:43:19.063Z,11.20
2022-11-13T11:44:19.062Z,12.02
2022-11-13T11:45:19.070Z,11.68
2022-11-13T11:46:15.064Z,10.20
2022-11-13T11:47:15.062Z,11.20
2022-11-13T11:48:16.062Z,11.00
2022-11-13T11:49:11.066Z,11.76
2022-11-13T11:50:16.065Z,9.82
2022-11-13T11:51:19.065Z,9.82
2022-11-13T11:52:22.063Z,10.98
2022-11-13T11:53:22.066Z,10.14
2022-11-13T11:54:22.080Z,11.68
2022-11-13T11:55:19.065Z,10.58
2022-11-13T11:56:19.064Z,10.74
2022-11-13T11:57:22.063Z,11.26
2022-11-13T11:58:22.059Z,11.46
2022-11-13T11:59:19.064Z,11.48
2022-11-13T12:00:16.072Z,10.66
2022-11-13T12:01:19.067Z,11.50
2022-11-13T12:02:19.063Z,9.86
2022-11-13T12:03:22.069Z,11.08
2022-11-13T12:04:22.066Z,11.10
2022-11-13T12:05:20.105Z,11.32
2022-11-13T12:06:22.066Z,10.66
2022-11-13T12:07:22.157Z,10.28
2022-11-13T12:08:19.065Z,10.28
2022-11-13T12:09:19.067Z,10.98
2022-11-13T12:10:22.068Z,11.96
2022-11-13T12:11:21.078Z,11.64
2022-11-13T12:12:22.069Z,10.26
2022-11-13T12:13:19.062Z,10.66
2022-11-13T12:14:19.063Z,11.86
2022-11-13T12:15:19.067Z,10.98
2022-11-13T12:16:25.096Z,10.42
2022-11-13T12:17:19.069Z,10.80
2022-11-13T12:18:22.065Z,9.88
2022-11-13T12:19:22.067Z,10.62
2022-11-13T12:20:19.069Z,11.62
2022-11-13T12:21:19.061Z,11.64
2022-11-13T12:22:22.830Z,10.08
2022-11-13T12:23:19.062Z,10.04
2022-11-13T12:24:19.059Z,12.52
2022-11-13T12:25:19.061Z,10.42
2022-11-13T12:26:19.068Z,10.62
2022-11-13T12:27:19.064Z,11.16
2022-11-13T12:28:20.058Z,10.44
2022-11-13T12:29:19.066Z,11.22
2022-11-13T12:30:16.062Z,11.58
2022-11-13T12:31:19.067Z,12.36
2022-11-13T12:32:19.063Z,11.14
2022-11-13T12:33:19.058Z,10.66
2022-11-13T12:34:19.062Z,10.70
2022-11-13T12:35:18.064Z,10.98
2022-11-13T12:36:12.070Z,11.38
2022-11-13T12:37:15.062Z,9.84
2022-11-13T12:38:19.061Z,10.78
2022-11-13T12:39:22.069Z,10.64
2022-11-13T12:40:19.062Z,10.66
2022-11-13T12:41:22.059Z,11.56
2022-11-13T12:42:20.063Z,10.48
2022-11-13T12:43:22.066Z,10.76
2022-11-13T12:44:19.063Z,10.92
2022-11-13T12:45:19.075Z,10.90
2022-11-13T12:46:11.063Z,11.20
2022-11-13T12:47:11.066Z,12.10
2022-11-13T12:48:19.071Z,11.62
2022-11-13T12:49:19.063Z,10.56
2022-11-13T12:50:19.062Z,9.38
2022-11-13T12:51:16.062Z,10.30
2022-11-13T12:52:19.063Z,10.34
2022-11-13T12:53:18.073Z,11.40
2022-11-13T12:54:11.064Z,10.14
2022-11-13T12:55:19.061Z,11.66